Time;durP1;ratioP1;P1;durP2;ratioP2;P2;SDS_P1;SDS_P2;PMS_P1;PMS_P2;Temp;Humidity;BMP_temperature;BMP_pressure;BME280_temperature;BME280_humidity;BME280_pressure;Samples;Min_cycle;Max_cycle;Signal;HPM_P1;HPM_P2
2022/11/22 00:00:37;;;;;;;63.30;37.23;;;-0.80;99.90;-1.80;99331;;;;553036;255;24055;-78
2022/11/22 00:03:05;;;;;;;71.47;41.27;;;-0.80;99.90;-1.80;99331;;;;553354;258;25120;-79
2022/11/22 00:05:34;;;;;;;78.57;43.00;;;-0.80;99.90;-1.80;99324;;;;553395;258;24058;-77
2022/11/22 00:08:02;;;;;;;77.20;44.90;;;-0.80;99.90;-1.90;99326;;;;553347;258;24076;-77
2022/11/22 00:10:30;;;;;;;77.80;44.27;;;-0.80;99.90;-1.90;99310;;;;553304;258;24058;-77
2022/11/22 00:12:58;;;;;;;79.00;45.90;;;-0.90;99.90;-1.90;99321;;;;553413;258;24056;-78
2022/11/22 00:15:29;;;;;;;72.80;41.87;;;-0.90;99.90;-1.90;99318;;;;553416;258;24049;-78
2022/11/22 00:17:54;;;;;;;72.10;43.83;;;-0.90;99.90;-1.90;99313;;;;554519;254;24056;-79
2022/11/22 00:20:22;;;;;;;75.60;43.53;;;-0.90;99.90;-1.90;99321;;;;554560;258;24074;-78
2022/11/22 00:22:50;;;;;;;74.23;42.40;;;-0.90;99.90;-1.90;99324;;;;554203;258;24093;-77
2022/11/22 00:25:18;;;;;;;73.03;42.80;;;-0.90;99.90;-1.90;99326;;;;554699;258;24056;-76
2022/11/22 00:27:46;;;;;;;78.73;43.83;;;-0.90;99.90;-1.90;99327;;;;554148;258;24059;-77
2022/11/22 00:30:14;;;;;;;73.13;41.30;;;-0.90;99.90;-1.90;99326;;;;554082;258;24055;-77
2022/11/22 00:32:42;;;;;;;69.60;40.20;;;-0.90;99.90;-1.90;99331;;;;554543;258;24062;-77
2022/11/22 00:35:10;;;;;;;75.20;41.97;;;-0.90;99.90;-1.90;99339;;;;554198;258;24084;-78
2022/11/22 00:37:42;;;;;;;71.33;40.10;;;-0.90;99.90;-1.90;99340;;;;553792;255;24060;-77
2022/11/22 00:40:09;;;;;;;70.80;41.27;;;-0.90;99.90;-1.90;99351;;;;553788;258;24133;-78
2022/11/22 00:42:34;;;;;;;73.60;40.33;;;-0.80;99.90;-1.80;99344;;;;553790;259;24063;-77
2022/11/22 00:45:02;;;;;;;76.57;44.03;;;-0.80;99.90;-1.80;99344;;;;554052;258;24056;-76
2022/11/22 00:47:30;;;;;;;69.73;38.17;;;-0.80;99.90;-1.80;99344;;;;554046;258;25126;-77
2022/11/22 00:49:58;;;;;;;68.83;39.93;;;-0.80;99.90;-1.70;99344;;;;553895;258;24070;-77
2022/11/22 00:52:26;;;;;;;60.77;35.73;;;-0.70;99.90;-1.70;99341;;;;553647;258;24071;-77
2022/11/22 00:54:54;;;;;;;65.67;37.43;;;-0.70;99.90;-1.70;99341;;;;553560;258;24069;-76
2022/11/22 00:57:22;;;;;;;67.63;41.50;;;-0.70;99.90;-1.70;99335;;;;554059;258;24078;-78
2022/11/22 00:59:50;;;;;;;70.47;41.03;;;-0.70;99.90;-1.70;99343;;;;553532;259;25186;-77
2022/11/22 01:02:18;;;;;;;68.90;40.00;;;-0.70;99.90;-1.70;99345;;;;553434;258;24071;-77
2022/11/22 01:04:46;;;;;;;70.47;39.50;;;-0.70;99.90;-1.70;99348;;;;553384;258;24107;-77
2022/11/22 01:07:14;;;;;;;64.80;38.10;;;-0.60;99.90;-1.70;99342;;;;553444;258;24069;-79
2022/11/22 01:09:42;;;;;;;66.53;37.30;;;-0.60;99.90;-1.60;99352;;;;553587;258;24096;-78
2022/11/22 01:12:09;;;;;;;66.53;38.57;;;-0.60;99.90;-1.60;99353;;;;553517;258;24081;-80
2022/11/22 01:14:37;;;;;;;73.50;44.67;;;-0.60;99.90;-1.60;99358;;;;553567;258;24074;-79
2022/11/22 01:17:05;;;;;;;75.10;42.27;;;-0.60;99.90;-1.60;99360;;;;553579;258;24107;-78
2022/11/22 01:19:33;;;;;;;60.83;36.20;;;-0.60;99.90;-1.60;99359;;;;553425;258;24077;-78
2022/11/22 01:22:01;;;;;;;65.20;35.53;;;-0.60;99.90;-1.60;99361;;;;553308;258;28370;-77
2022/11/22 01:24:29;;;;;;;70.33;40.17;;;-0.60;99.90;-1.60;99344;;;;553379;258;24118;-79
2022/11/22 01:26:57;;;;;;;71.07;39.93;;;-0.60;99.90;-1.60;99348;;;;553861;258;24097;-77
2022/11/22 01:29:25;;;;;;;66.80;41.63;;;-0.50;99.90;-1.60;99354;;;;554650;257;24062;-79
2022/11/22 01:31:53;;;;;;;67.50;39.80;;;-0.50;99.90;-1.60;99353;;;;554318;258;24051;-79
2022/11/22 01:34:20;;;;;;;66.90;40.03;;;-0.50;99.90;-1.50;99354;;;;554187;258;24086;-79
2022/11/22 01:36:48;;;;;;;59.13;34.17;;;-0.50;99.90;-1.50;99347;;;;554240;258;24055;-79
2022/11/22 01:39:17;;;;;;;62.20;35.23;;;-0.50;99.90;-1.50;99357;;;;553912;258;24084;-80
2022/11/22 01:41:45;;;;;;;66.43;35.90;;;-0.50;99.90;-1.50;99360;;;;553857;258;24045;-80
2022/11/22 01:44:24;;;;;;;71.17;41.80;;;-0.40;99.90;-1.50;99344;;;;553855;258;24103;-78
2022/11/22 01:47:04;;;;;;;66.60;37.50;;;-0.40;99.90;-1.50;99335;;;;553667;258;24045;-77
2022/11/22 01:49:32;;;;;;;62.40;35.83;;;-0.40;99.90;-1.50;99340;;;;553467;259;24074;-78
2022/11/22 01:52:02;;;;;;;61.63;36.27;;;-0.50;99.90;-1.50;99345;;;;552828;258;24060;-79
2022/11/22 01:54:30;;;;;;;68.60;36.93;;;-0.50;99.90;-1.50;99362;;;;553463;259;25102;-80
2022/11/22 01:56:58;;;;;;;67.47;37.90;;;-0.50;99.90;-1.50;99346;;;;553483;255;24055;-81
2022/11/22 01:59:27;;;;;;;70.27;37.97;;;-0.50;99.90;-1.50;99354;;;;553482;255;24064;-81
2022/11/22 02:01:55;;;;;;;69.03;38.07;;;-0.50;99.90;-1.50;99355;;;;553389;255;24065;-81
2022/11/22 02:04:22;;;;;;;71.30;40.93;;;-0.50;99.90;-1.50;99348;;;;553510;256;24132;-80
2022/11/22 02:06:57;;;;;;;63.40;33.97;;;-0.50;99.90;-1.50;99345;;;;553244;256;24074;-81
2022/11/22 02:09:24;;;;;;;73.93;36.67;;;-0.50;99.90;-1.40;99352;;;;553100;255;24073;-79
2022/11/22 02:11:53;;;;;;;67.93;35.57;;;-0.40;99.90;-1.40;99353;;;;553330;258;24075;-79
2022/11/22 02:14:21;;;;;;;66.13;39.20;;;-0.40;99.90;-1.40;99345;;;;553236;255;24138;-79
2022/11/22 02:16:49;;;;;;;74.90;39.80;;;-0.40;99.90;-1.40;99353;;;;553106;255;24090;-79
2022/11/22 02:19:32;;;;;;;72.87;38.77;;;-0.40;99.90;-1.40;99356;;;;553368;258;24051;-78
2022/11/22 02:22:00;;;;;;;72.40;39.67;;;-0.40;99.90;-1.40;99359;;;;548985;259;24112;-79
2022/11/22 02:24:32;;;;;;;68.67;37.33;;;-0.40;99.90;-1.40;99352;;;;552931;259;24078;-77
2022/11/22 02:27:00;;;;;;;75.97;40.90;;;-0.40;99.90;-1.40;99363;;;;553180;256;24075;-77
2022/11/22 02:29:28;;;;;;;62.63;34.73;;;-0.40;99.90;-1.40;99372;;;;553541;256;24087;-78
2022/11/22 02:31:56;;;;;;;66.73;35.80;;;-0.40;99.90;-1.40;99376;;;;553333;258;24063;-78
2022/11/22 02:34:25;;;;;;;77.27;36.87;;;-0.40;99.90;-1.40;99370;;;;553381;258;24113;-79
2022/11/22 02:36:53;;;;;;;70.77;35.47;;;-0.40;99.90;-1.40;99364;;;;553347;258;24106;-78
2022/11/22 02:39:20;;;;;;;71.33;35.00;;;-0.40;99.90;-1.30;99374;;;;553527;256;24055;-78
2022/11/22 02:41:52;;;;;;;75.10;37.83;;;-0.40;99.90;-1.30;99369;;;;554612;258;24050;-80
2022/11/22 02:44:16;;;;;;;69.97;35.70;;;-0.40;99.90;-1.30;99368;;;;554347;258;24074;-80
2022/11/22 02:46:51;;;;;;;79.63;39.17;;;-0.30;99.90;-1.30;99371;;;;554144;258;24067;-80
2022/11/22 02:49:18;;;;;;;64.73;33.30;;;-0.30;99.90;-1.40;99368;;;;553623;256;24048;-78
2022/11/22 02:51:46;;;;;;;102.15;55.12;;;-0.30;99.90;-1.30;99369;;;;548593;253;34733;-77
2022/11/22 02:54:14;;;;;;;77.57;39.27;;;-0.40;99.90;-1.30;99382;;;;554284;258;24084;-77
2022/11/22 02:56:45;;;;;;;78.03;37.53;;;-0.30;99.90;-1.30;99374;;;;553927;258;24065;-77
2022/11/22 02:59:10;;;;;;;66.23;34.33;;;-0.30;99.90;-1.30;99359;;;;553292;252;24142;-75
2022/11/22 03:01:42;;;;;;;72.37;36.97;;;-0.30;99.90;-1.30;99372;;;;553587;258;24125;-78
2022/11/22 03:04:06;;;;;;;72.23;36.03;;;-0.30;99.90;-1.20;99374;;;;553289;259;25130;-77
2022/11/22 03:06:35;;;;;;;68.03;34.63;;;-0.20;99.90;-1.20;99375;;;;553568;258;24122;-77
2022/11/22 03:09:03;;;;;;;78.47;36.37;;;-0.20;99.90;-1.20;99366;;;;553571;258;24115;-77
2022/11/22 03:11:31;;;;;;;77.07;37.90;;;-0.20;99.90;-1.20;99359;;;;553561;258;24064;-78
2022/11/22 03:13:59;;;;;;;72.97;39.47;;;-0.20;99.90;-1.20;99367;;;;553572;258;24079;-75
2022/11/22 03:16:29;;;;;;;74.47;35.37;;;-0.20;99.90;-1.20;99363;;;;553431;258;24066;-77
2022/11/22 03:18:59;;;;;;;67.47;33.27;;;-0.20;99.90;-1.20;99351;;;;553238;255;24059;-79
2022/11/22 03:21:24;;;;;;;79.53;37.23;;;-0.20;99.90;-1.10;99349;;;;553152;258;24094;-78
2022/11/22 03:23:52;;;;;;;73.27;34.07;;;-0.20;99.90;-1.20;99347;;;;553328;258;24075;-79
2022/11/22 03:26:20;;;;;;;71.03;34.47;;;-0.20;99.90;-1.20;99351;;;;553340;258;25082;-79
2022/11/22 03:28:48;;;;;;;68.90;35.47;;;-0.20;99.90;-1.20;99356;;;;553780;258;24044;-80
2022/11/22 03:31:16;;;;;;;66.97;33.70;;;-0.20;99.90;-1.20;99350;;;;553467;258;24077;-79
2022/11/22 03:33:45;;;;;;;66.77;33.27;;;-0.20;99.90;-1.20;99349;;;;553548;258;24113;-80
2022/11/22 03:36:13;;;;;;;73.90;35.00;;;-0.20;99.90;-1.20;99351;;;;553350;258;24054;-80
2022/11/22 03:38:40;;;;;;;64.67;33.37;;;-0.20;99.90;-1.20;99350;;;;553342;258;24080;-79
2022/11/22 03:41:08;;;;;;;76.40;35.07;;;-0.20;99.90;-1.10;99345;;;;553347;258;24147;-79
2022/11/22 03:43:37;;;;;;;65.73;34.80;;;-0.20;99.90;-1.10;99342;;;;553358;258;24071;-79
2022/11/22 03:46:05;;;;;;;70.93;35.97;;;-0.20;99.90;-1.10;99341;;;;553330;258;24077;-79
2022/11/22 03:48:33;;;;;;;72.07;34.57;;;-0.10;99.90;-1.10;99339;;;;553352;258;24053;-77
2022/11/22 03:51:08;;;;;;;71.23;34.10;;;-0.10;99.90;-1.10;99339;;;;553603;257;24078;-78
2022/11/22 03:53:32;;;;;;;72.80;35.00;;;-0.10;99.90;-1.10;99348;;;;554366;258;24057;-79
2022/11/22 03:56:00;;;;;;;73.40;34.63;;;-0.10;99.90;-1.10;99346;;;;554236;258;24082;-80
2022/11/22 03:58:28;;;;;;;69.27;34.50;;;-0.10;99.90;-1.10;99345;;;;554057;258;24055;-80
2022/11/22 04:00:56;;;;;;;64.50;32.33;;;-0.10;99.90;-1.10;99345;;;;554371;258;24078;-80
2022/11/22 04:03:24;;;;;;;67.27;33.47;;;-0.10;99.90;-1.00;99337;;;;554007;258;24095;-80
2022/11/22 04:05:56;;;;;;;64.77;34.20;;;0.00;99.90;-1.00;99345;;;;553836;258;24052;-79
2022/11/22 04:08:20;;;;;;;66.20;32.07;;;-0.10;99.90;-1.00;99346;;;;553632;254;24075;-79
2022/11/22 04:10:51;;;;;;;62.30;33.07;;;0.00;99.90;-1.00;99353;;;;553628;258;24056;-80
2022/11/22 04:13:21;;;;;;;70.73;32.87;;;0.00;99.90;-1.00;99364;;;;553422;254;24109;-81
2022/11/22 04:15:45;;;;;;;64.33;32.30;;;0.00;99.90;-1.00;99366;;;;553758;259;24057;-80
2022/11/22 04:18:16;;;;;;;68.63;34.03;;;0.00;99.90;-1.00;99356;;;;553586;258;25172;-79
2022/11/22 04:23:27;;;;;;;63.60;31.53;;;0.00;99.90;-1.00;99362;;;;553595;259;24074;-77
2022/11/22 04:25:56;;;;;;;70.63;34.93;;;0.00;99.90;-0.90;99362;;;;553653;259;24107;-80
2022/11/22 04:28:25;;;;;;;65.83;33.90;;;0.00;99.90;-0.90;99366;;;;553943;258;24083;-80
2022/11/22 04:33:39;;;;;;;70.33;35.20;;;0.10;99.90;-0.90;99358;;;;553358;259;24060;-80
2022/11/22 04:36:08;;;;;;;69.17;34.20;;;0.10;99.90;-0.90;99355;;;;553533;258;24092;-77
2022/11/22 04:38:35;;;;;;;79.80;43.57;;;0.10;99.90;-0.90;99352;;;;553384;258;24065;-79
2022/11/22 04:41:03;;;;;;;77.50;43.40;;;0.10;99.90;-0.90;99343;;;;553489;258;24140;-80
2022/11/22 04:46:20;;;;;;;68.53;37.87;;;0.10;99.90;-0.90;99338;;;;553534;259;24119;-77
2022/11/22 04:48:45;;;;;;;57.53;33.63;;;0.10;99.90;-0.90;99347;;;;553111;257;24110;-79
2022/11/22 04:54:02;;;;;;;63.07;34.03;;;0.10;99.90;-0.90;99356;;;;553333;259;24053;-79
2022/11/22 04:56:28;;;;;;;61.37;35.07;;;0.10;99.90;-0.90;99357;;;;553019;255;25096;-80
2022/11/22 04:58:56;;;;;;;64.57;36.30;;;0.10;99.90;-0.90;99350;;;;553421;258;24055;-78
2022/11/22 05:01:23;;;;;;;67.03;36.53;;;0.10;99.90;-0.90;99343;;;;553527;258;24093;-78
2022/11/22 05:03:51;;;;;;;72.83;37.73;;;0.10;99.90;-0.90;99350;;;;554554;258;24055;-79
2022/11/22 05:06:20;;;;;;;69.43;38.07;;;0.10;99.90;-0.90;99350;;;;554468;258;24158;-80
2022/11/22 05:08:48;;;;;;;56.47;29.93;;;0.00;99.90;-0.90;99346;;;;554346;257;24049;-78
2022/11/22 05:11:17;;;;;;;55.33;30.60;;;0.10;99.90;-0.90;99353;;;;554088;258;24064;-80
2022/11/22 05:13:44;;;;;;;57.93;30.87;;;0.00;99.90;-0.90;99360;;;;553791;255;24070;-80
2022/11/22 05:16:12;;;;;;;53.87;28.67;;;0.10;99.90;-0.90;99359;;;;553766;256;24058;-79
2022/11/22 05:18:40;;;;;;;54.33;29.07;;;0.00;99.90;-0.80;99371;;;;553689;256;24052;-80
2022/11/22 05:21:11;;;;;;;54.03;28.63;;;0.10;99.90;-0.80;99371;;;;553730;258;24052;-81
2022/11/22 05:23:55;;;;;;;54.80;29.93;;;0.20;99.90;-0.80;99361;;;;553572;256;24059;-80
2022/11/22 05:26:29;;;;;;;53.70;29.07;;;0.20;99.90;-0.70;99361;;;;553605;258;24109;-80
2022/11/22 05:28:58;;;;;;;63.93;35.80;;;0.20;99.90;-0.70;99357;;;;553995;258;24066;-79
2022/11/22 05:31:28;;;;;;;78.90;40.40;;;0.20;99.90;-0.70;99370;;;;553647;256;24048;-79
2022/11/22 05:33:53;;;;;;;67.27;38.30;;;0.30;99.90;-0.80;99365;;;;553339;258;24077;-79
2022/11/22 05:36:21;;;;;;;58.37;32.13;;;0.20;99.90;-0.80;99364;;;;553608;256;24069;-79
2022/11/22 05:38:54;;;;;;;60.07;30.63;;;0.20;99.90;-0.80;99378;;;;553602;258;24079;-80
2022/11/22 05:41:18;;;;;;;64.03;32.43;;;0.20;99.90;-0.80;99378;;;;553261;258;25101;-79
2022/11/22 05:43:46;;;;;;;58.63;32.47;;;0.20;99.90;-0.80;99382;;;;553738;258;25086;-81
2022/11/22 05:46:16;;;;;;;53.73;27.27;;;0.20;99.90;-0.70;99382;;;;553759;258;24090;-81
2022/11/22 05:48:44;;;;;;;59.63;31.73;;;0.20;99.90;-0.70;99388;;;;554172;255;24078;-80
2022/11/22 05:51:12;;;;;;;56.47;29.50;;;0.30;99.90;-0.70;99384;;;;554309;256;24068;-80
2022/11/22 05:53:40;;;;;;;62.87;33.67;;;0.30;99.90;-0.70;99386;;;;554276;259;24072;-80
2022/11/22 05:56:15;;;;;;;63.87;31.73;;;0.30;99.90;-0.70;99390;;;;553759;256;25102;-78
2022/11/22 05:58:43;;;;;;;59.90;30.10;;;0.20;99.90;-0.70;99401;;;;553038;258;24100;-79
2022/11/22 06:01:07;;;;;;;59.30;30.53;;;0.30;99.90;-0.60;99389;;;;553201;254;24069;-80
2022/11/22 06:03:39;;;;;;;74.33;37.67;;;0.30;99.90;-0.60;99390;;;;553311;258;24197;-80
2022/11/22 06:06:03;;;;;;;77.30;39.30;;;0.40;99.90;-0.60;99394;;;;553232;258;24095;-78
2022/11/22 06:08:34;;;;;;;55.83;28.87;;;0.40;99.90;-0.60;99379;;;;553422;256;24066;-77
2022/11/22 06:11:04;;;;;;;80.67;39.87;;;0.40;99.90;-0.60;99387;;;;553070;258;24070;-77
2022/11/22 06:13:38;;;;;;;69.23;35.10;;;0.40;99.90;-0.60;99388;;;;553252;258;24070;-77
2022/11/22 06:16:10;;;;;;;83.40;41.73;;;0.40;99.90;-0.60;99397;;;;554901;256;24087;-78
2022/11/22 06:18:34;;;;;;;78.10;39.37;;;0.40;99.90;-0.60;99396;;;;553983;257;24102;-78
2022/11/22 06:21:04;;;;;;;67.50;36.97;;;0.40;99.90;-0.60;99399;;;;554067;258;24079;-77
2022/11/22 06:23:36;;;;;;;79.57;40.73;;;0.30;99.90;-0.70;99406;;;;553970;256;24051;-77
2022/11/22 06:26:04;;;;;;;75.90;38.70;;;0.30;99.90;-0.70;99408;;;;553661;259;24100;-77
2022/11/22 06:28:31;;;;;;;62.10;33.47;;;0.30;99.90;-0.70;99417;;;;553242;255;24036;-77
2022/11/22 06:31:01;;;;;;;67.83;34.73;;;0.20;99.90;-0.70;99424;;;;554200;256;24056;-77
2022/11/22 06:33:33;;;;;;;60.13;30.00;;;0.20;99.90;-0.70;99421;;;;553781;259;24044;-77
2022/11/22 06:36:03;;;;;;;55.13;31.80;;;0.20;99.90;-0.70;99425;;;;553163;259;24096;-76
2022/11/22 06:38:31;;;;;;;70.97;35.07;;;0.30;99.90;-0.70;99427;;;;553648;256;24060;-79
2022/11/22 06:40:59;;;;;;;64.07;36.77;;;0.30;99.90;-0.70;99416;;;;553583;257;25116;-79
2022/11/22 06:43:30;;;;;;;58.07;29.20;;;0.30;99.90;-0.60;99424;;;;553451;258;25126;-80
2022/11/22 06:45:58;;;;;;;49.80;27.83;;;0.30;99.90;-0.60;99433;;;;553169;256;24080;-80
2022/11/22 06:48:28;;;;;;;65.53;32.37;;;0.40;99.90;-0.60;99442;;;;553625;258;24068;-79
2022/11/22 06:50:53;;;;;;;57.07;30.40;;;0.40;99.90;-0.50;99435;;;;552937;255;24096;-78
2022/11/22 06:53:21;;;;;;;69.30;35.37;;;0.40;99.90;-0.50;99438;;;;552958;259;25093;-78
2022/11/22 06:55:49;;;;;;;66.27;31.20;;;0.50;99.90;-0.50;99439;;;;553304;258;25112;-79
2022/11/22 06:58:17;;;;;;;79.67;34.27;;;0.50;99.90;-0.50;99436;;;;553347;258;25122;-79
2022/11/22 07:00:45;;;;;;;79.23;34.50;;;0.50;99.90;-0.50;99442;;;;553320;258;24061;-77
2022/11/22 07:03:13;;;;;;;65.63;32.60;;;0.50;99.90;-0.50;99437;;;;553344;258;24078;-78
2022/11/22 07:05:41;;;;;;;74.13;33.17;;;0.50;99.90;-0.50;99438;;;;553333;258;24059;-76
2022/11/22 07:08:09;;;;;;;62.13;32.93;;;0.50;99.90;-0.40;99456;;;;552468;259;25101;-75
2022/11/22 07:10:37;;;;;;;58.03;31.63;;;0.60;99.90;-0.40;99451;;;;553320;258;24094;-78
2022/11/22 07:13:05;;;;;;;73.73;32.10;;;0.50;99.90;-0.40;99456;;;;553303;258;24041;-76
2022/11/22 07:15:34;;;;;;;72.77;33.33;;;0.70;99.90;-0.30;99443;;;;553511;258;24044;-79
2022/11/22 07:18:02;;;;;;;63.03;32.17;;;0.60;99.90;-0.30;99456;;;;553290;258;24062;-79
2022/11/22 07:20:30;;;;;;;101.60;46.47;;;0.70;99.90;-0.30;99460;;;;548529;258;45518;-79
2022/11/22 07:22:57;;;;;;;72.70;34.10;;;0.70;99.90;-0.30;99450;;;;553317;258;24113;-80
2022/11/22 07:25:26;;;;;;;83.97;38.80;;;0.70;99.90;-0.30;99446;;;;553329;258;24093;-80
2022/11/22 07:27:54;;;;;;;91.20;38.17;;;0.70;99.90;-0.30;99447;;;;554718;257;24052;-79
2022/11/22 07:30:22;;;;;;;87.47;39.47;;;0.70;99.90;-0.30;99453;;;;554705;257;25100;-80
2022/11/22 07:32:50;;;;;;;95.47;41.50;;;0.70;99.90;-0.30;99447;;;;554220;258;24114;-80
2022/11/22 07:35:18;;;;;;;108.23;43.10;;;0.70;99.90;-0.30;99445;;;;553958;258;24105;-80
2022/11/22 07:37:46;;;;;;;75.23;35.47;;;0.60;99.90;-0.30;99460;;;;553823;258;24062;-80
2022/11/22 07:40:14;;;;;;;84.27;38.27;;;0.70;99.90;-0.30;99467;;;;553823;258;24089;-80
2022/11/22 07:42:42;;;;;;;79.83;35.60;;;0.70;99.90;-0.30;99472;;;;553806;258;24063;-80
2022/11/22 07:45:11;;;;;;;80.73;37.17;;;0.70;99.90;-0.30;99469;;;;553656;258;24052;-78
2022/11/22 07:47:38;;;;;;;87.80;37.40;;;0.70;99.90;-0.20;99470;;;;553576;258;24160;-80
2022/11/22 07:50:07;;;;;;;118.13;46.67;;;0.70;99.90;-0.20;99471;;;;553597;258;24102;-80
2022/11/22 07:52:35;;;;;;;81.90;35.97;;;0.80;99.90;-0.20;99468;;;;553595;258;24076;-78
2022/11/22 07:55:03;;;;;;;69.27;32.77;;;0.90;99.90;-0.20;99475;;;;553807;258;24064;-77
2022/11/22 07:57:31;;;;;;;71.97;33.47;;;0.80;99.90;-0.10;99477;;;;553531;259;24073;-78
2022/11/22 08:00:00;;;;;;;64.00;30.07;;;0.90;99.90;0.00;99481;;;;553562;258;24085;-78
2022/11/22 08:02:27;;;;;;;90.70;40.47;;;0.90;99.90;0.00;99464;;;;553916;258;24072;-77
2022/11/22 08:04:55;;;;;;;80.57;33.40;;;1.00;99.90;0.00;99464;;;;553393;258;25101;-79
2022/11/22 08:07:23;;;;;;;95.03;40.20;;;1.00;99.90;0.10;99468;;;;553779;258;24075;-79
2022/11/22 08:09:51;;;;;;;86.33;35.27;;;1.00;99.90;0.00;99468;;;;553442;258;24085;-79
2022/11/22 08:12:19;;;;;;;93.43;38.07;;;1.00;99.90;0.00;99472;;;;553775;258;24063;-78
2022/11/22 08:14:47;;;;;;;98.80;39.17;;;1.00;99.90;0.00;99490;;;;553323;258;24049;-78
2022/11/22 08:17:15;;;;;;;80.60;33.70;;;1.00;99.90;-0.10;99498;;;;553811;258;24090;-81
2022/11/22 08:19:43;;;;;;;85.63;37.10;;;1.00;99.90;0.00;99512;;;;553571;258;24044;-77
2022/11/22 08:22:11;;;;;;;75.00;32.13;;;1.00;99.90;0.00;99505;;;;553813;258;24074;-76
2022/11/22 08:24:39;;;;;;;113.50;42.00;;;1.00;99.90;0.00;99513;;;;553628;258;25106;-79
2022/11/22 08:27:07;;;;;;;107.07;46.70;;;1.00;99.90;0.10;99510;;;;548544;258;34723;-79
2022/11/22 08:29:35;;;;;;;27.10;14.03;;;1.00;99.90;0.00;99505;;;;553387;258;25146;-78
2022/11/22 08:32:07;;;;;;;53.53;24.13;;;1.00;99.90;0.00;99494;;;;553851;258;24070;-79
2022/11/22 08:34:31;;;;;;;77.10;33.40;;;1.00;99.90;0.10;99496;;;;553193;254;25095;-79
2022/11/22 08:36:59;;;;;;;86.93;37.37;;;1.10;99.90;0.10;99499;;;;553882;258;24077;-75
2022/11/22 08:39:27;;;;;;;97.93;42.27;;;1.10;99.90;0.20;99501;;;;555083;257;24077;-78
2022/11/22 08:41:55;;;;;;;125.53;47.57;;;1.20;99.90;0.20;99501;;;;554858;257;24107;-79
2022/11/22 08:44:23;;;;;;;80.93;34.17;;;1.20;99.90;0.20;99505;;;;554340;258;25104;-77
2022/11/22 08:46:51;;;;;;;110.33;46.17;;;1.20;99.90;0.20;99502;;;;554495;258;24063;-77
2022/11/22 08:49:19;;;;;;;110.60;42.23;;;1.20;99.90;0.20;99505;;;;554058;258;24158;-76
2022/11/22 08:51:47;;;;;;;103.20;43.57;;;1.20;99.90;0.20;99489;;;;553853;258;24080;-76
2022/11/22 08:54:15;;;;;;;115.00;45.37;;;1.20;99.90;0.20;99505;;;;553816;258;24086;-76
2022/11/22 08:56:43;;;;;;;95.27;39.70;;;1.20;99.90;0.20;99502;;;;553653;258;24067;-77
2022/11/22 08:59:12;;;;;;;93.03;39.47;;;1.20;99.90;0.20;99499;;;;554018;258;24054;-77
2022/11/22 09:01:42;;;;;;;84.63;37.23;;;1.20;99.90;0.30;99504;;;;553712;258;24075;-78
2022/11/22 09:04:07;;;;;;;89.03;38.97;;;1.30;99.90;0.30;99498;;;;553850;255;24044;-77
2022/11/22 09:06:39;;;;;;;94.33;41.50;;;1.30;99.90;0.30;99496;;;;553785;258;24060;-77
2022/11/22 09:09:03;;;;;;;89.13;38.53;;;1.30;99.90;0.30;99487;;;;553886;253;24072;-77
2022/11/22 09:11:31;;;;;;;92.07;38.10;;;1.30;99.90;0.30;99484;;;;553608;258;24084;-78
2022/11/22 09:13:59;;;;;;;89.53;40.17;;;1.30;99.90;0.40;99492;;;;553636;258;24087;-77
2022/11/22 09:16:30;;;;;;;88.63;41.77;;;1.40;99.90;0.30;99496;;;;553671;256;24063;-77
2022/11/22 09:18:59;;;;;;;96.77;42.73;;;1.40;99.90;0.40;99491;;;;553530;258;24075;-76
2022/11/22 09:21:27;;;;;;;92.70;38.97;;;1.40;99.90;0.40;99494;;;;553782;258;24070;-78
2022/11/22 09:23:54;;;;;;;95.90;44.70;;;1.40;99.90;0.40;99504;;;;548738;258;34677;-78
2022/11/22 09:26:26;;;;;;;37.47;18.10;;;1.40;99.90;0.40;99500;;;;553780;258;24067;-78
2022/11/22 09:28:51;;;;;;;35.57;14.27;;;1.40;99.90;0.40;99496;;;;553009;258;24057;-78
2022/11/22 09:31:18;;;;;;;82.37;33.70;;;1.40;99.90;0.50;99493;;;;553728;258;24086;-78
2022/11/22 09:33:49;;;;;;;98.47;39.50;;;1.50;99.90;0.60;99494;;;;553356;256;24086;-80
2022/11/22 09:36:14;;;;;;;74.43;33.40;;;1.50;99.90;0.60;99496;;;;553528;258;24055;-79
2022/11/22 09:38:45;;;;;;;92.43;42.38;;;1.60;99.90;0.60;99496;;;;548619;256;34689;-79
2022/11/22 09:41:15;;;;;;;30.23;14.17;;;1.60;99.90;0.60;99504;;;;553604;255;24105;-78
2022/11/22 09:44:10;;;;;;;33.07;16.57;;;1.60;99.90;0.60;99518;;;;553475;258;24071;-78
2022/11/22 09:46:55;;;;;;;67.60;27.63;;;1.60;99.90;0.50;99507;;;;553244;259;24044;-79
2022/11/22 09:49:59;;;;;;;61.23;30.00;;;1.50;99.90;0.60;99506;;;;554335;257;24067;-80
2022/11/22 09:52:36;;;;;;;82.60;38.63;;;1.60;99.90;0.60;99500;;;;554400;257;24058;-79
2022/11/22 09:55:09;;;;;;;82.07;38.30;;;1.60;99.90;0.60;99506;;;;554417;258;24055;-78
2022/11/22 09:57:45;;;;;;;78.13;36.03;;;1.60;99.90;0.60;99512;;;;553974;257;24061;-78
2022/11/22 10:00:24;;;;;;;68.30;34.23;;;1.60;99.90;0.60;99506;;;;553927;258;24052;-79
2022/11/22 10:02:56;;;;;;;95.00;44.07;;;1.60;99.90;0.70;99501;;;;553894;256;24068;-78
2022/11/22 10:05:29;;;;;;;73.07;35.10;;;1.60;99.90;0.70;99504;;;;554117;259;24063;-79
2022/11/22 10:08:05;;;;;;;81.33;36.90;;;1.60;99.90;0.70;99504;;;;553068;253;24059;-78
2022/11/22 10:10:39;;;;;;;69.37;36.57;;;1.70;99.90;0.70;99495;;;;552401;255;24060;-79
2022/11/22 10:13:19;;;;;;;78.20;36.23;;;1.70;99.90;0.70;99500;;;;553670;255;24074;-79
2022/11/22 10:16:37;;;;;;;64.30;31.60;;;1.70;99.90;0.70;99493;;;;554039;257;24124;-78
2022/11/22 10:19:23;;;;;;;82.27;39.43;;;1.70;99.90;0.70;99491;;;;554004;259;25116;-79
2022/11/22 10:21:51;;;;;;;75.50;35.87;;;1.70;99.90;0.60;99500;;;;553334;255;24149;-78
2022/11/22 10:24:19;;;;;;;75.60;36.53;;;1.60;99.90;0.60;99494;;;;554001;258;24066;-81
2022/11/22 10:26:51;;;;;;;71.97;33.83;;;1.60;99.90;0.50;99497;;;;553406;258;24063;-77
2022/11/22 10:29:42;;;;;;;84.07;38.77;;;1.50;99.90;0.60;99497;;;;553528;253;24060;-80
2022/11/22 10:32:28;;;;;;;78.70;38.37;;;1.50;99.90;0.50;99492;;;;553152;256;24074;-80
2022/11/22 10:35:17;;;;;;;78.33;37.10;;;1.50;99.90;0.50;99490;;;;553548;257;24140;-79
2022/11/22 10:37:45;;;;;;;71.17;36.40;;;1.50;99.90;0.50;99481;;;;553610;255;24080;-79
2022/11/22 10:40:24;;;;;;;71.83;35.33;;;1.50;99.90;0.50;99488;;;;555753;252;24115;-80
2022/11/22 10:43:19;;;;;;;74.50;34.93;;;1.50;99.90;0.50;99498;;;;553785;258;24048;-80
2022/11/22 10:45:53;;;;;;;68.20;34.70;;;1.50;99.90;0.50;99498;;;;553431;257;24075;-80
2022/11/22 10:48:36;;;;;;;73.50;34.23;;;1.50;99.90;0.60;99494;;;;545909;256;24158;-80
2022/11/22 10:51:34;;;;;;;63.00;30.77;;;1.60;99.90;0.60;99498;;;;553098;258;24048;-78
2022/11/22 10:54:27;;;;;;;60.10;29.90;;;1.60;99.90;0.70;99497;;;;555057;256;24092;-79
2022/11/22 10:57:29;;;;;;;58.70;29.33;;;1.70;99.90;0.70;99505;;;;553650;259;24076;-79
2022/11/22 11:00:20;;;;;;;52.63;28.63;;;1.70;99.90;0.80;99500;;;;553447;259;24092;-80
2022/11/22 11:03:15;;;;;;;62.73;29.50;;;1.80;99.90;0.90;99501;;;;554603;258;24098;-80
2022/11/22 11:05:53;;;;;;;59.57;29.03;;;1.80;99.90;0.80;99504;;;;554536;258;24047;-78
2022/11/22 11:08:39;;;;;;;51.53;27.77;;;1.80;99.90;0.80;99510;;;;554211;253;24153;-78
2022/11/22 11:11:07;;;;;;;51.53;26.40;;;1.80;99.90;0.90;99505;;;;554168;254;24087;-79
2022/11/22 11:13:35;;;;;;;51.87;26.50;;;1.90;99.90;1.00;99502;;;;554252;258;24066;-79
2022/11/22 11:16:02;;;;;;;51.80;26.87;;;1.90;99.90;1.00;99495;;;;554325;255;24242;-79
2022/11/22 11:18:51;;;;;;;50.00;25.37;;;2.00;99.90;1.00;99501;;;;554364;255;24135;-76
2022/11/22 11:21:19;;;;;;;52.53;25.40;;;2.00;99.90;0.90;99497;;;;554584;258;24056;-77
2022/11/22 11:23:47;;;;;;;51.93;27.30;;;2.00;99.90;0.90;99494;;;;554795;258;24067;-80
2022/11/22 11:26:27;;;;;;;53.67;26.83;;;1.90;99.90;0.90;99492;;;;554568;258;24114;-81
2022/11/22 11:29:16;;;;;;;57.33;27.87;;;1.90;99.90;1.00;99492;;;;554893;258;24073;-83
2022/11/22 11:31:52;;;;;;;52.83;27.70;;;1.90;99.90;1.00;99481;;;;554704;256;24063;-80
2022/11/22 11:34:26;;;;;;;61.53;29.53;;;1.90;99.90;0.90;99489;;;;550278;258;24073;-80